createdAt,value
2019-03-05T00:01:09.160Z,0.30
2019-03-05T00:03:36.808Z,0.40
2019-03-05T00:06:03.727Z,0.30
2019-03-05T00:08:30.004Z,0.40
2019-03-05T00:10:56.291Z,0.40
2019-03-05T00:13:22.921Z,0.30
2019-03-05T00:15:50.452Z,0.40
2019-03-05T00:18:17.374Z,0.40
2019-03-05T00:20:43.684Z,0.30
2019-03-05T00:23:10.392Z,0.50
2019-03-05T00:25:37.293Z,0.40
2019-03-05T00:28:22.266Z,0.40
2019-03-05T00:30:55.101Z,0.20
2019-03-05T00:33:52.498Z,0.50
2019-03-05T00:36:26.962Z,0.40
2019-03-05T00:39:20.449Z,0.37
2019-03-05T00:41:57.881Z,0.40
2019-03-05T00:44:46.141Z,0.40
2019-03-05T00:47:14.677Z,0.40
2019-03-05T00:49:56.482Z,0.70
2019-03-05T00:52:31.100Z,0.70
2019-03-05T00:54:59.613Z,0.70
2019-03-05T00:57:38.114Z,0.50
2019-03-05T01:00:15.437Z,0.50
2019-03-05T01:02:55.811Z,0.63
2019-03-05T01:05:57.686Z,0.50
2019-03-05T01:08:24.483Z,0.83
2019-03-05T01:10:51.108Z,0.43
2019-03-05T01:13:17.846Z,0.50
2019-03-05T01:15:44.461Z,0.43
2019-03-05T01:18:11.116Z,0.40
2019-03-05T01:20:37.381Z,0.47
2019-03-05T01:23:03.665Z,0.50
2019-03-05T01:25:33.764Z,0.37
2019-03-05T01:28:00.541Z,0.53
2019-03-05T01:30:52.028Z,0.50
2019-03-05T01:33:19.209Z,0.50
2019-03-05T01:35:47.375Z,0.60
2019-03-05T01:38:13.677Z,0.47
2019-03-05T01:40:40.121Z,0.50
2019-03-05T01:43:06.425Z,0.50
2019-03-05T01:45:34.194Z,0.50
2019-03-05T01:48:00.882Z,0.43
2019-03-05T01:50:27.165Z,0.40
2019-03-05T01:52:53.417Z,0.70
2019-03-05T01:55:19.693Z,0.50
2019-03-05T01:57:46.230Z,0.40
2019-03-05T02:00:13.239Z,0.50
2019-03-05T02:02:39.613Z,0.60
2019-03-05T02:05:07.201Z,0.60
2019-03-05T02:07:33.466Z,0.70
2019-03-05T02:10:00.439Z,0.50
2019-03-05T02:12:27.043Z,0.50
2019-03-05T02:14:53.353Z,0.40
2019-03-05T02:17:20.070Z,0.30
2019-03-05T02:19:46.372Z,0.50
2019-03-05T02:22:14.897Z,0.40
2019-03-05T02:24:58.366Z,0.47
2019-03-05T02:27:43.306Z,0.30
2019-03-05T02:30:17.758Z,0.30
2019-03-05T02:32:56.650Z,0.50
2019-03-05T02:35:28.303Z,0.83
2019-03-05T02:38:22.380Z,0.30
2019-03-05T02:40:57.871Z,0.30
2019-03-05T02:43:29.253Z,0.30
2019-03-05T02:45:57.831Z,0.40
2019-03-05T02:48:26.409Z,0.63
2019-03-05T02:51:07.140Z,0.90
2019-03-05T02:53:40.255Z,0.50
2019-03-05T02:56:23.764Z,0.40
2019-03-05T02:58:50.318Z,0.60
2019-03-05T03:01:18.910Z,0.30
2019-03-05T03:03:47.096Z,0.60
2019-03-05T03:06:16.408Z,0.50
2019-03-05T03:08:43.041Z,0.50
2019-03-05T03:11:09.416Z,0.50
2019-03-05T03:13:35.743Z,0.60
2019-03-05T03:16:02.178Z,0.97
2019-03-05T03:18:28.829Z,0.60
2019-03-05T03:20:55.451Z,0.73
2019-03-05T03:23:22.113Z,0.50
2019-03-05T03:25:48.363Z,0.60
2019-03-05T03:28:15.018Z,0.70
2019-03-05T03:30:41.285Z,0.60
2019-03-05T03:33:07.578Z,0.63
2019-03-05T03:35:34.189Z,0.90
2019-03-05T03:38:00.862Z,0.70
2019-03-05T03:40:27.489Z,0.40
2019-03-05T03:42:54.152Z,0.50
2019-03-05T03:45:20.861Z,0.43
2019-03-05T03:47:47.157Z,0.40
2019-03-05T03:50:13.649Z,0.50
2019-03-05T03:52:39.946Z,0.60
2019-03-05T03:55:09.256Z,0.20
2019-03-05T03:57:35.983Z,0.30
2019-03-05T04:00:04.335Z,0.27
2019-03-05T04:02:30.639Z,0.50
2019-03-05T04:04:56.898Z,0.30
2019-03-05T04:07:23.660Z,0.40
2019-03-05T04:09:50.276Z,0.40
2019-03-05T04:12:16.566Z,0.50
2019-03-05T04:14:44.784Z,0.80
2019-03-05T04:17:11.166Z,0.60
2019-03-05T04:19:37.779Z,0.50
2019-03-05T04:22:04.052Z,0.47
2019-03-05T04:24:30.314Z,0.40
2019-03-05T04:26:56.579Z,0.50
2019-03-05T04:29:23.223Z,0.37
2019-03-05T04:31:49.498Z,0.30
2019-03-05T04:34:16.426Z,0.47
2019-03-05T04:36:43.066Z,0.60
2019-03-05T04:39:10.480Z,0.40
2019-03-05T04:41:37.082Z,0.43
2019-03-05T04:44:03.742Z,0.50
2019-03-05T04:46:31.914Z,0.63
2019-03-05T04:49:16.609Z,0.40
2019-03-05T04:51:57.125Z,0.50
2019-03-05T04:54:23.433Z,0.40
2019-03-05T04:56:50.810Z,0.40
2019-03-05T05:04:08.934Z,0.50
2019-03-05T05:06:35.562Z,0.40
2019-03-05T05:09:03.419Z,0.50
2019-03-05T05:11:30.037Z,0.40
2019-03-05T05:13:56.678Z,0.30
2019-03-05T05:16:22.946Z,0.40
2019-03-05T05:18:49.599Z,0.30
2019-03-05T05:21:16.329Z,0.70
2019-03-05T05:23:42.993Z,0.50
2019-03-05T05:26:09.934Z,0.40
2019-03-05T05:28:36.590Z,0.40
2019-03-05T05:31:03.249Z,0.30
2019-03-05T05:33:29.877Z,0.53
2019-03-05T05:35:56.490Z,0.40
2019-03-05T05:38:23.332Z,0.70
2019-03-05T05:40:49.950Z,0.40
2019-03-05T05:43:21.225Z,0.27
2019-03-05T05:45:48.545Z,0.60
2019-03-05T05:48:14.930Z,0.50
2019-03-05T05:50:41.579Z,0.50
2019-03-05T05:53:08.205Z,0.50
2019-03-05T05:55:34.941Z,0.70
2019-03-05T05:58:01.676Z,0.40
2019-03-05T06:00:27.953Z,0.60
2019-03-05T06:02:54.220Z,0.30
2019-03-05T06:05:20.509Z,0.40
2019-03-05T06:07:46.773Z,0.40
2019-03-05T06:10:13.437Z,0.47
2019-03-05T06:12:41.993Z,0.50
2019-03-05T06:15:12.249Z,0.50
2019-03-05T06:17:38.502Z,0.57
2019-03-05T06:20:09.313Z,0.40
2019-03-05T06:22:35.591Z,0.50
2019-03-05T06:25:02.934Z,0.43
2019-03-05T06:27:29.556Z,0.50
2019-03-05T06:29:56.210Z,0.80
2019-03-05T06:32:22.829Z,0.70
2019-03-05T06:34:49.134Z,0.43
2019-03-05T06:37:15.746Z,0.60
2019-03-05T06:39:42.399Z,0.83
2019-03-05T06:42:09.013Z,0.50
2019-03-05T06:44:35.317Z,0.53
2019-03-05T06:47:02.033Z,0.47
2019-03-05T06:49:28.714Z,0.80
2019-03-05T06:51:55.322Z,0.50
2019-03-05T06:54:21.945Z,0.50
2019-03-05T06:56:48.557Z,0.40
2019-03-05T06:59:15.161Z,0.43
2019-03-05T07:01:41.439Z,0.50
2019-03-05T07:04:08.062Z,0.40
2019-03-05T07:06:50.794Z,0.47
2019-03-05T07:09:25.251Z,0.87
2019-03-05T07:11:55.341Z,0.50
2019-03-05T07:14:35.733Z,0.80
2019-03-05T07:17:04.265Z,0.67
2019-03-05T07:19:40.183Z,0.53
2019-03-05T07:22:08.697Z,0.60
2019-03-05T07:24:44.496Z,0.67
2019-03-05T07:27:11.580Z,0.50
2019-03-05T07:29:37.850Z,1.40
2019-03-05T07:32:04.481Z,1.33
2019-03-05T07:34:33.007Z,1.70
2019-03-05T07:36:59.317Z,1.00
2019-03-05T07:39:28.970Z,0.77
2019-03-05T07:41:55.621Z,0.60
2019-03-05T07:44:21.908Z,0.60
2019-03-05T07:46:48.187Z,0.63
2019-03-05T07:49:15.999Z,0.50
2019-03-05T07:51:42.207Z,0.47
2019-03-05T07:54:08.821Z,0.70
2019-03-05T07:56:35.114Z,0.50
2019-03-05T07:59:01.370Z,0.60
2019-03-05T08:01:28.350Z,0.70
2019-03-05T08:03:54.943Z,0.80
2019-03-05T08:06:22.622Z,0.60
2019-03-05T08:09:08.492Z,0.70
2019-03-05T08:11:34.757Z,0.50
2019-03-05T08:14:06.318Z,0.70
2019-03-05T08:16:32.701Z,0.60
2019-03-05T08:18:59.328Z,0.60
2019-03-05T08:21:25.918Z,0.53
2019-03-05T08:23:52.590Z,0.63
2019-03-05T08:26:21.027Z,0.87
2019-03-05T08:28:47.686Z,1.07
2019-03-05T08:31:14.048Z,2.47
2019-03-05T08:33:40.330Z,1.00
2019-03-05T08:36:06.597Z,0.70
2019-03-05T08:38:33.234Z,0.70
2019-03-05T08:40:59.849Z,0.70
2019-03-05T08:43:26.525Z,0.50
2019-03-05T08:45:53.145Z,0.37
2019-03-05T08:48:19.810Z,0.50
2019-03-05T08:50:46.086Z,0.40
2019-03-05T08:53:12.366Z,0.53
2019-03-05T08:55:38.622Z,0.47
2019-03-05T08:58:05.265Z,0.63
2019-03-05T09:00:32.290Z,0.40
2019-03-05T09:02:58.918Z,0.40
2019-03-05T09:05:25.533Z,0.50
2019-03-05T09:07:52.922Z,0.50
2019-03-05T09:10:21.453Z,0.60
2019-03-05T09:12:47.743Z,0.30
2019-03-05T09:15:15.605Z,0.60
2019-03-05T09:17:42.327Z,0.70
2019-03-05T09:20:14.500Z,0.60
2019-03-05T09:22:41.266Z,0.60
2019-03-05T09:25:10.643Z,0.40
2019-03-05T09:27:36.983Z,0.70
2019-03-05T09:30:08.538Z,0.50
2019-03-05T09:32:34.813Z,0.50
2019-03-05T09:35:01.913Z,0.50
2019-03-05T09:37:28.551Z,0.50
2019-03-05T09:39:55.989Z,0.50
2019-03-05T09:42:22.702Z,0.60
2019-03-05T09:44:49.349Z,0.77
2019-03-05T09:47:17.290Z,0.50
2019-03-05T09:49:46.298Z,0.70
2019-03-05T09:52:12.930Z,2.40
2019-03-05T09:54:39.578Z,1.63
2019-03-05T09:57:06.198Z,1.30
2019-03-05T09:59:32.500Z,0.90
2019-03-05T10:01:59.027Z,0.60
2019-03-05T10:04:25.350Z,0.90
2019-03-05T10:06:51.966Z,0.50
2019-03-05T10:09:19.519Z,0.70
2019-03-05T10:11:45.881Z,0.30
2019-03-05T10:14:13.306Z,0.50
2019-03-05T10:16:39.567Z,0.80
2019-03-05T10:19:06.335Z,0.80
2019-03-05T10:21:32.994Z,1.07
2019-03-05T10:24:09.755Z,0.85
2019-03-05T10:26:28.298Z,0.90
2019-03-05T10:28:55.047Z,0.60
2019-03-05T10:31:21.666Z,0.70
2019-03-05T10:33:48.172Z,0.70
2019-03-05T10:36:14.895Z,0.93
2019-03-05T10:38:41.553Z,1.07
2019-03-05T10:41:08.277Z,0.63
2019-03-05T10:43:35.060Z,0.80
2019-03-05T10:46:01.713Z,0.80
2019-03-05T10:48:30.271Z,1.00
2019-03-05T10:50:57.017Z,0.60
2019-03-05T10:53:23.483Z,0.80
2019-03-05T10:55:50.973Z,0.90
2019-03-05T10:58:17.334Z,0.97
2019-03-05T11:03:11.294Z,0.97
2019-03-05T11:05:39.510Z,0.50
2019-03-05T11:08:06.531Z,0.40
2019-03-05T11:10:34.485Z,0.80
2019-03-05T11:13:01.305Z,0.60
2019-03-05T11:15:29.069Z,0.70
2019-03-05T11:17:55.680Z,0.80
2019-03-05T11:20:24.241Z,0.60
2019-03-05T11:22:50.798Z,0.70
2019-03-05T11:25:18.344Z,0.57
2019-03-05T11:27:45.067Z,0.60
2019-03-05T11:30:35.623Z,0.67
2019-03-05T11:32:54.501Z,0.90
2019-03-05T11:35:22.825Z,0.80
2019-03-05T11:37:49.798Z,0.60
2019-03-05T11:40:21.043Z,0.40
2019-03-05T11:42:46.690Z,0.40
2019-03-05T11:45:25.934Z,0.43
2019-03-05T11:47:53.005Z,0.60
2019-03-05T11:50:19.701Z,0.30
2019-03-05T11:52:46.368Z,0.50
2019-03-05T11:55:15.330Z,0.40
2019-03-05T11:57:42.046Z,0.40
2019-03-05T12:00:13.733Z,0.40
2019-03-05T12:02:40.105Z,0.30
2019-03-05T12:05:11.153Z,0.50
2019-03-05T12:07:37.775Z,0.30
2019-03-05T12:10:06.341Z,0.30
2019-03-05T12:12:32.959Z,0.30
2019-03-05T12:14:59.270Z,0.40
2019-03-05T12:17:25.540Z,0.20
2019-03-05T12:19:52.654Z,0.40
2019-03-05T12:22:19.767Z,0.40
2019-03-05T12:24:46.393Z,0.50
2019-03-05T12:27:13.105Z,0.53
2019-03-05T12:29:39.722Z,0.40
2019-03-05T12:32:06.082Z,0.30
2019-03-05T12:34:32.695Z,0.40
2019-03-05T12:36:59.335Z,0.70
2019-03-05T12:39:25.966Z,0.37
2019-03-05T12:41:52.274Z,0.40
2019-03-05T12:44:18.998Z,0.30
2019-03-05T12:46:45.653Z,0.43
2019-03-05T12:49:12.277Z,1.17
2019-03-05T12:51:38.562Z,12.50
2019-03-05T12:54:04.816Z,5.37
2019-03-05T12:56:31.466Z,1.23
2019-03-05T12:58:57.773Z,0.70
2019-03-05T13:01:24.394Z,0.60
2019-03-05T13:03:50.719Z,0.60
2019-03-05T13:06:17.010Z,0.70
2019-03-05T13:08:43.598Z,0.67
2019-03-05T13:11:13.094Z,0.50
2019-03-05T13:13:38.317Z,0.50
2019-03-05T13:16:04.975Z,0.50
2019-03-05T13:18:32.403Z,0.87
2019-03-05T13:20:59.124Z,1.10
2019-03-05T13:23:25.730Z,1.23
2019-03-05T13:25:52.374Z,1.13
2019-03-05T13:28:18.977Z,0.60
2019-03-05T13:30:45.602Z,0.70
2019-03-05T13:33:12.545Z,0.70
2019-03-05T13:35:38.813Z,0.43
2019-03-05T13:38:07.362Z,0.47
2019-03-05T13:40:38.548Z,0.60
2019-03-05T13:43:03.724Z,0.60
2019-03-05T13:45:29.994Z,0.40
2019-03-05T13:48:23.534Z,0.50
2019-03-05T13:51:11.213Z,0.50
2019-03-05T13:54:05.723Z,0.40
2019-03-05T13:56:37.759Z,0.67
2019-03-05T13:59:13.006Z,0.57
2019-03-05T14:01:39.922Z,0.40
2019-03-05T14:04:12.814Z,0.47
2019-03-05T14:06:51.224Z,0.60
2019-03-05T14:09:18.678Z,0.53
2019-03-05T14:11:46.386Z,0.70
2019-03-05T14:14:20.309Z,0.67
2019-03-05T14:16:48.943Z,0.80
2019-03-05T14:19:15.690Z,0.60
2019-03-05T14:21:42.414Z,0.50
2019-03-05T14:24:09.093Z,0.40
2019-03-05T14:26:35.701Z,0.73
2019-03-05T14:29:02.475Z,0.80
2019-03-05T14:31:29.063Z,0.50
2019-03-05T14:33:55.350Z,0.63
2019-03-05T14:36:23.197Z,0.50
2019-03-05T14:38:49.501Z,0.53
2019-03-05T14:41:16.282Z,0.70
2019-03-05T14:43:42.733Z,0.60
2019-03-05T14:46:09.100Z,0.40
2019-03-05T14:48:35.746Z,0.53
2019-03-05T14:51:02.381Z,0.70
2019-03-05T14:53:28.670Z,0.70
2019-03-05T14:55:55.339Z,0.60
2019-03-05T14:58:21.824Z,0.70
2019-03-05T15:00:48.748Z,0.40
2019-03-05T15:03:16.934Z,0.53
2019-03-05T15:05:43.236Z,0.60
2019-03-05T15:08:09.822Z,0.37
2019-03-05T15:10:36.557Z,0.50
2019-03-05T15:13:14.926Z,0.80
2019-03-05T15:15:31.408Z,0.53
2019-03-05T15:17:59.641Z,1.17
2019-03-05T15:20:26.405Z,1.00
2019-03-05T15:22:53.202Z,1.40
2019-03-05T15:25:20.211Z,1.30
2019-03-05T15:27:46.425Z,1.17
2019-03-05T15:30:14.985Z,1.80
2019-03-05T15:32:41.234Z,1.30
2019-03-05T15:35:08.019Z,0.97
2019-03-05T15:37:34.272Z,0.87
2019-03-05T15:40:00.931Z,0.80
2019-03-05T15:42:28.747Z,0.80
2019-03-05T15:44:55.538Z,0.60
2019-03-05T15:47:22.159Z,0.50
2019-03-05T15:49:48.799Z,0.30
2019-03-05T15:52:15.423Z,0.30
2019-03-05T15:54:42.049Z,0.63
2019-03-05T15:57:08.419Z,0.50
2019-03-05T15:59:35.079Z,0.40
2019-03-05T16:02:01.799Z,0.50
2019-03-05T16:04:28.082Z,0.30
2019-03-05T16:06:55.037Z,0.40
2019-03-05T16:09:21.659Z,0.70
2019-03-05T16:11:48.298Z,0.70
2019-03-05T16:14:14.958Z,0.50
2019-03-05T16:16:41.720Z,0.50
2019-03-05T16:19:07.969Z,0.50
2019-03-05T16:21:37.121Z,0.60
2019-03-05T16:24:02.850Z,0.50
2019-03-05T16:26:29.758Z,0.50
2019-03-05T16:28:56.409Z,0.60
2019-03-05T16:31:25.157Z,0.93
2019-03-05T16:33:56.370Z,1.10
2019-03-05T16:36:30.846Z,0.90
2019-03-05T16:38:59.946Z,1.50
2019-03-05T16:41:44.849Z,1.13
2019-03-05T16:44:22.317Z,0.83
2019-03-05T16:46:53.469Z,0.60
2019-03-05T16:49:24.386Z,0.60
2019-03-05T16:51:55.910Z,0.50
2019-03-05T16:54:27.060Z,0.50
2019-03-05T16:56:55.266Z,0.40
2019-03-05T16:59:26.519Z,0.40
2019-03-05T17:02:11.569Z,0.43
2019-03-05T17:04:57.765Z,0.80
2019-03-05T17:07:29.151Z,1.17
2019-03-05T17:10:03.530Z,0.80
2019-03-05T17:12:30.179Z,0.50
2019-03-05T17:14:56.803Z,0.80
2019-03-05T17:17:23.086Z,0.60
2019-03-05T17:19:49.462Z,0.60
2019-03-05T17:22:16.129Z,0.67
2019-03-05T17:24:43.015Z,0.80
2019-03-05T17:27:09.302Z,0.70
2019-03-05T17:29:35.931Z,1.43
2019-03-05T17:32:02.681Z,1.10
2019-03-05T17:34:29.322Z,0.70
2019-03-05T17:36:55.978Z,0.50
2019-03-05T17:39:23.102Z,0.93
2019-03-05T17:41:49.746Z,1.40
2019-03-05T17:44:16.563Z,0.87
2019-03-05T17:46:43.397Z,0.60
2019-03-05T17:49:09.654Z,0.50
2019-03-05T17:51:36.294Z,0.30
2019-03-05T17:54:03.028Z,0.80
2019-03-05T17:56:29.669Z,0.50
2019-03-05T17:58:55.930Z,0.40
2019-03-05T18:01:22.657Z,0.40
2019-03-05T18:03:49.277Z,1.13
2019-03-05T18:06:15.625Z,0.80
2019-03-05T18:08:41.938Z,0.40
2019-03-05T18:11:10.101Z,0.40
2019-03-05T18:13:36.746Z,0.33
2019-03-05T18:16:03.389Z,0.40
2019-03-05T18:18:29.778Z,0.50
2019-03-05T18:20:56.402Z,0.67
2019-03-05T18:23:23.050Z,0.60
2019-03-05T18:25:50.037Z,0.40
2019-03-05T18:28:16.784Z,0.30
2019-03-05T18:30:43.764Z,0.67
2019-03-05T18:33:10.422Z,0.50
2019-03-05T18:35:39.066Z,0.60
2019-03-05T18:38:05.706Z,20.03
2019-03-05T18:40:33.146Z,0.70
2019-03-05T18:42:59.973Z,0.50
2019-03-05T18:45:30.431Z,0.47
2019-03-05T18:47:57.041Z,0.70
2019-03-05T18:50:23.506Z,0.47
2019-03-05T18:52:50.946Z,0.40
2019-03-05T18:55:21.739Z,81.07
2019-03-05T18:57:48.400Z,58.07
2019-03-05T19:00:16.223Z,41.57
2019-03-05T19:02:42.963Z,20.77
2019-03-05T19:05:10.495Z,12.47
2019-03-05T19:07:37.122Z,6.43
2019-03-05T19:10:08.621Z,3.63
2019-03-05T19:12:34.929Z,1.93
2019-03-05T19:15:01.634Z,1.60
2019-03-05T19:17:27.942Z,1.90
2019-03-05T19:19:54.561Z,1.90
2019-03-05T19:22:21.181Z,1.37
2019-03-05T19:24:47.828Z,3.23
2019-03-05T19:27:14.467Z,5.53
2019-03-05T19:29:41.159Z,2.60
2019-03-05T19:32:07.857Z,1.10
2019-03-05T19:34:34.489Z,0.93
2019-03-05T19:37:01.118Z,0.60
2019-03-05T19:39:27.498Z,0.60
2019-03-05T19:41:56.316Z,0.60
2019-03-05T19:44:22.237Z,0.60
2019-03-05T19:46:48.511Z,0.67
2019-03-05T19:49:14.825Z,0.90
2019-03-05T19:51:41.441Z,0.60
2019-03-05T19:54:09.458Z,0.53
2019-03-05T19:56:36.161Z,0.40
2019-03-05T19:59:02.789Z,0.50
2019-03-05T20:01:31.872Z,0.50
2019-03-05T20:03:58.588Z,0.50
2019-03-05T20:06:25.403Z,0.73
2019-03-05T20:08:52.309Z,0.50
2019-03-05T20:11:18.923Z,0.50
2019-03-05T20:13:45.582Z,5.00
2019-03-05T20:16:12.213Z,4.23
2019-03-05T20:18:38.513Z,3.87
2019-03-05T20:21:05.533Z,2.00
2019-03-05T20:23:32.174Z,1.20
2019-03-05T20:25:58.641Z,1.10
2019-03-05T20:28:25.222Z,0.60
2019-03-05T20:30:51.575Z,0.70
2019-03-05T20:33:18.814Z,0.57
2019-03-05T20:35:45.313Z,0.60
2019-03-05T20:38:12.219Z,0.47
2019-03-05T20:40:38.907Z,0.77
2019-03-05T20:43:05.628Z,0.47
2019-03-05T20:45:36.510Z,0.50
2019-03-05T20:48:03.317Z,0.30
2019-03-05T20:50:30.103Z,0.60
2019-03-05T20:52:56.478Z,0.40
2019-03-05T20:55:23.823Z,0.50
2019-03-05T20:57:50.448Z,0.60
2019-03-05T21:00:22.798Z,0.50
2019-03-05T21:02:49.351Z,0.60
2019-03-05T21:05:15.797Z,0.50
2019-03-05T21:07:42.426Z,0.50
2019-03-05T21:10:09.164Z,0.80
2019-03-05T21:12:35.714Z,0.60
2019-03-05T21:15:05.181Z,0.60
2019-03-05T21:17:32.101Z,0.47
2019-03-05T21:19:58.381Z,0.47
2019-03-05T21:22:25.002Z,0.40
2019-03-05T21:24:51.283Z,0.73
2019-03-05T21:27:19.793Z,0.47
2019-03-05T21:29:46.069Z,0.50
2019-03-05T21:32:13.152Z,0.50
2019-03-05T21:34:39.804Z,0.70
2019-03-05T21:37:06.675Z,0.40
2019-03-05T21:39:33.313Z,0.50
2019-03-05T21:41:59.559Z,0.57
2019-03-05T21:44:25.840Z,0.40
2019-03-05T21:46:52.681Z,0.70
2019-03-05T21:49:19.319Z,0.40
2019-03-05T21:51:45.946Z,0.47
2019-03-05T21:54:12.571Z,0.50
2019-03-05T21:56:39.219Z,0.53
2019-03-05T21:59:05.845Z,0.43
2019-03-05T22:01:32.629Z,0.80
2019-03-05T22:03:59.166Z,0.70
2019-03-05T22:06:25.459Z,0.50
2019-03-05T22:08:51.734Z,0.90
2019-03-05T22:11:18.019Z,0.70
2019-03-05T22:13:44.270Z,0.70
2019-03-05T22:16:11.114Z,0.70
2019-03-05T22:18:37.738Z,0.60
2019-03-05T22:21:04.395Z,0.70
2019-03-05T22:23:30.637Z,1.07
2019-03-05T22:25:57.018Z,0.97
2019-03-05T22:28:23.273Z,1.10
2019-03-05T22:30:49.844Z,1.00
2019-03-05T22:33:16.461Z,1.00
2019-03-05T22:35:43.105Z,0.87
2019-03-05T22:38:09.722Z,1.10
2019-03-05T22:40:36.495Z,0.87
2019-03-05T22:43:03.373Z,1.03
2019-03-05T22:45:31.071Z,1.13
2019-03-05T22:47:57.704Z,1.20
2019-03-05T22:50:24.316Z,1.00
2019-03-05T22:52:50.900Z,1.20
2019-03-05T22:55:17.629Z,1.10
2019-03-05T22:57:44.581Z,1.00
2019-03-05T23:00:14.242Z,1.07
2019-03-05T23:02:41.145Z,1.60
2019-03-05T23:05:10.214Z,1.33
2019-03-05T23:07:36.858Z,1.23
2019-03-05T23:10:06.297Z,1.10
2019-03-05T23:12:33.053Z,1.40
2019-03-05T23:14:59.591Z,1.10
2019-03-05T23:17:25.972Z,1.20
2019-03-05T23:19:52.580Z,0.90
2019-03-05T23:22:19.076Z,1.13
2019-03-05T23:24:45.341Z,1.20
2019-03-05T23:27:12.192Z,1.50
2019-03-05T23:29:40.712Z,1.20
2019-03-05T23:32:06.983Z,1.87
2019-03-05T23:34:33.248Z,1.80
2019-03-05T23:36:59.751Z,1.30
2019-03-05T23:39:26.010Z,1.53
2019-03-05T23:41:52.979Z,1.40
2019-03-05T23:44:19.602Z,1.70
2019-03-05T23:46:46.346Z,1.97
2019-03-05T23:49:12.597Z,1.70
2019-03-05T23:51:38.850Z,1.70
2019-03-05T23:54:05.474Z,1.80
2019-03-05T23:56:32.094Z,2.00
2019-03-05T23:58:58.358Z,1.70
